createdAt,value
2019-02-12T00:01:03.890Z,5.40
2019-02-12T00:02:19.284Z,5.40
2019-02-12T00:03:25.399Z,5.40
2019-02-12T00:04:30.450Z,5.40
2019-02-12T00:05:40.321Z,5.30
2019-02-12T00:06:45.712Z,5.30
2019-02-12T00:07:50.798Z,5.30
2019-02-12T00:08:55.715Z,5.30
2019-02-12T00:10:32.088Z,5.30
2019-02-12T00:11:36.992Z,5.30
2019-02-12T00:12:53.606Z,5.40
2019-02-12T00:14:10.816Z,5.30
2019-02-12T00:15:26.413Z,5.30
2019-02-12T00:16:39.178Z,5.40
2019-02-12T00:17:44.343Z,5.40
2019-02-12T00:18:56.286Z,5.40
2019-02-12T00:20:01.635Z,5.40
2019-02-12T00:21:09.423Z,5.40
2019-02-12T00:22:15.043Z,5.40
2019-02-12T00:23:25.190Z,5.40
2019-02-12T00:24:30.114Z,5.40
2019-02-12T00:25:35.509Z,5.40
2019-02-12T00:26:40.381Z,5.40
2019-02-12T00:27:45.380Z,5.50
2019-02-12T00:28:50.340Z,5.40
2019-02-12T00:29:55.545Z,5.40
2019-02-12T00:31:01.797Z,5.40
2019-02-12T00:32:30.335Z,5.40
2019-02-12T00:33:35.676Z,5.70
2019-02-12T00:34:40.564Z,5.40
2019-02-12T00:35:46.125Z,5.40
2019-02-12T00:36:51.027Z,5.40
2019-02-12T00:37:55.912Z,5.40
2019-02-12T00:39:00.974Z,5.40
2019-02-12T00:40:14.154Z,5.40
2019-02-12T00:41:20.705Z,5.40
2019-02-12T00:42:33.340Z,5.40
2019-02-12T00:43:45.220Z,5.40
2019-02-12T00:44:50.536Z,5.40
2019-02-12T00:45:55.380Z,5.40
2019-02-12T00:47:00.896Z,5.40
2019-02-12T00:48:09.186Z,5.40
2019-02-12T00:49:17.911Z,5.50
2019-02-12T00:50:24.032Z,5.40
2019-02-12T00:51:37.180Z,5.40
2019-02-12T00:52:48.274Z,5.40
2019-02-12T00:54:06.418Z,5.40
2019-02-12T00:55:19.877Z,5.40
2019-02-12T00:56:24.937Z,5.40
2019-02-12T00:57:29.797Z,5.40
2019-02-12T00:58:38.116Z,5.40
2019-02-12T00:59:43.467Z,5.40
2019-02-12T01:00:48.687Z,5.40
2019-02-12T01:01:57.490Z,5.30
2019-02-12T01:03:02.925Z,5.40
2019-02-12T01:04:10.381Z,5.30
2019-02-12T01:05:15.804Z,5.30
2019-02-12T01:06:22.717Z,5.30
2019-02-12T01:07:28.078Z,5.30
2019-02-12T01:08:35.160Z,5.30
2019-02-12T01:09:43.798Z,5.30
2019-02-12T01:10:50.602Z,5.30
2019-02-12T01:11:57.077Z,5.20
2019-02-12T01:13:03.996Z,5.30
2019-02-12T01:14:12.786Z,5.30
2019-02-12T01:15:19.093Z,5.30
2019-02-12T01:16:32.677Z,5.30
2019-02-12T01:17:39.609Z,5.30
2019-02-12T01:18:53.366Z,5.20
2019-02-12T01:20:10.883Z,5.30
2019-02-12T01:21:17.187Z,5.20
2019-02-12T01:22:24.009Z,5.30
2019-02-12T01:23:30.341Z,5.30
2019-02-12T01:24:52.777Z,5.20
2019-02-12T01:26:00.439Z,5.20
2019-02-12T01:27:07.874Z,5.20
2019-02-12T01:28:17.978Z,5.30
2019-02-12T01:30:12.214Z,5.30
2019-02-12T01:31:21.995Z,5.30
2019-02-12T01:32:31.235Z,5.20
2019-02-12T01:33:38.342Z,5.20
2019-02-12T01:34:44.649Z,5.30
2019-02-12T01:35:50.627Z,5.30
2019-02-12T01:36:55.472Z,5.30
2019-02-12T01:38:00.318Z,5.30
2019-02-12T01:39:11.809Z,5.30
2019-02-12T01:40:16.740Z,5.30
2019-02-12T01:41:21.602Z,5.40
2019-02-12T01:42:26.482Z,5.40
2019-02-12T01:43:31.478Z,5.30
2019-02-12T01:44:36.582Z,5.30
2019-02-12T01:45:42.466Z,5.30
2019-02-12T01:46:47.438Z,5.30
2019-02-12T01:47:52.345Z,5.30
2019-02-12T01:48:57.774Z,5.20
2019-02-12T01:50:02.687Z,5.20
2019-02-12T01:51:08.407Z,5.20
2019-02-12T01:52:13.343Z,5.20
2019-02-12T01:53:19.508Z,5.20
2019-02-12T01:54:24.413Z,5.10
2019-02-12T01:55:29.424Z,5.10
2019-02-12T01:56:36.770Z,5.10
2019-02-12T01:57:43.965Z,5.10
2019-02-12T01:58:49.399Z,5.10
2019-02-12T01:59:54.202Z,5.10
2019-02-12T02:01:03.314Z,5.20
2019-02-12T02:02:09.179Z,5.20
2019-02-12T02:03:14.344Z,5.30
2019-02-12T02:04:22.316Z,5.20
2019-02-12T02:05:27.649Z,5.20
2019-02-12T02:06:32.643Z,5.30
2019-02-12T02:07:37.895Z,5.30
2019-02-12T02:08:43.399Z,5.20
2019-02-12T02:09:53.467Z,5.20
2019-02-12T02:10:59.144Z,5.20
2019-02-12T02:12:04.166Z,5.20
2019-02-12T02:13:09.601Z,5.20
2019-02-12T02:14:14.454Z,5.20
2019-02-12T02:15:19.713Z,5.20
2019-02-12T02:16:24.749Z,5.20
2019-02-12T02:17:29.640Z,5.20
2019-02-12T02:18:34.913Z,5.10
2019-02-12T02:19:39.845Z,5.10
2019-02-12T02:20:44.854Z,5.10
2019-02-12T02:21:50.151Z,5.10
2019-02-12T02:22:55.403Z,5.10
2019-02-12T02:24:00.844Z,5.10
2019-02-12T02:25:06.311Z,5.10
2019-02-12T02:26:11.442Z,5.10
2019-02-12T02:27:16.827Z,5.10
2019-02-12T02:28:22.376Z,5.10
2019-02-12T02:29:27.601Z,5.10
2019-02-12T02:30:33.242Z,5.10
2019-02-12T02:31:38.330Z,5.10
2019-02-12T02:32:49.033Z,5.10
2019-02-12T02:33:55.219Z,5.00
2019-02-12T02:35:00.274Z,5.10
2019-02-12T02:36:05.356Z,5.10
2019-02-12T02:37:10.345Z,4.90
2019-02-12T02:38:15.636Z,5.00
2019-02-12T02:39:20.812Z,5.00
2019-02-12T02:40:25.756Z,5.00
2019-02-12T02:41:30.614Z,5.10
2019-02-12T02:42:35.693Z,5.00
2019-02-12T02:43:40.701Z,5.10
2019-02-12T02:44:45.645Z,5.10
2019-02-12T02:45:50.549Z,5.10
2019-02-12T02:46:55.354Z,5.10
2019-02-12T02:48:00.595Z,5.10
2019-02-12T02:49:05.464Z,5.10
2019-02-12T02:50:10.824Z,5.00
2019-02-12T02:51:16.478Z,5.10
2019-02-12T02:52:21.307Z,5.00
2019-02-12T02:53:29.543Z,5.00
2019-02-12T02:54:35.269Z,5.00
2019-02-12T02:55:40.294Z,5.00
2019-02-12T02:56:45.479Z,5.00
2019-02-12T02:57:52.489Z,5.00
2019-02-12T02:59:16.641Z,5.00
2019-02-12T03:00:21.807Z,5.00
2019-02-12T03:01:27.201Z,5.00
2019-02-12T03:02:32.769Z,4.90
2019-02-12T03:03:37.644Z,5.00
2019-02-12T03:04:44.988Z,4.90
2019-02-12T03:05:50.355Z,5.00
2019-02-12T03:06:55.791Z,4.90
2019-02-12T03:08:00.806Z,4.90
2019-02-12T03:09:07.837Z,4.60
2019-02-12T03:10:12.964Z,5.00
2019-02-12T03:11:19.612Z,5.00
2019-02-12T03:12:24.582Z,5.00
2019-02-12T03:13:29.745Z,5.00
2019-02-12T03:14:34.748Z,4.90
2019-02-12T03:15:40.103Z,4.90
2019-02-12T03:16:45.193Z,5.00
2019-02-12T03:17:52.059Z,4.90
2019-02-12T03:18:56.989Z,4.90
2019-02-12T03:20:02.346Z,4.90
2019-02-12T03:21:07.493Z,5.00
2019-02-12T03:22:12.459Z,4.90
2019-02-12T03:23:17.740Z,4.90
2019-02-12T03:24:23.162Z,4.90
2019-02-12T03:25:28.404Z,4.90
2019-02-12T03:26:33.265Z,4.90
2019-02-12T03:27:38.366Z,4.90
2019-02-12T03:28:43.333Z,4.90
2019-02-12T03:29:51.044Z,5.00
2019-02-12T03:30:55.886Z,4.90
2019-02-12T03:32:00.740Z,4.90
2019-02-12T03:33:05.669Z,4.90
2019-02-12T03:34:10.904Z,4.90
2019-02-12T03:35:16.143Z,4.80
2019-02-12T03:36:21.442Z,4.80
2019-02-12T03:37:26.559Z,4.80
2019-02-12T03:38:32.118Z,4.80
2019-02-12T03:39:37.025Z,4.80
2019-02-12T03:40:42.155Z,4.80
2019-02-12T03:41:47.035Z,4.80
2019-02-12T03:42:55.205Z,4.80
2019-02-12T03:44:00.025Z,4.80
2019-02-12T03:45:05.259Z,4.80
2019-02-12T03:46:10.232Z,4.80
2019-02-12T03:47:15.409Z,4.80
2019-02-12T03:48:21.269Z,4.80
2019-02-12T03:49:26.765Z,4.80
2019-02-12T03:50:33.668Z,4.80
2019-02-12T03:51:38.880Z,4.90
2019-02-12T03:52:44.065Z,4.90
2019-02-12T03:53:49.088Z,4.90
2019-02-12T03:54:54.042Z,5.00
2019-02-12T03:56:03.791Z,4.90
2019-02-12T03:57:08.805Z,5.00
2019-02-12T03:58:13.747Z,4.90
2019-02-12T03:59:18.833Z,4.90
2019-02-12T04:00:24.049Z,4.90
2019-02-12T04:01:29.566Z,4.90
2019-02-12T04:02:34.610Z,4.90
2019-02-12T04:03:39.777Z,4.90
2019-02-12T04:04:44.760Z,4.90
2019-02-12T04:05:49.691Z,4.80
2019-02-12T04:06:54.531Z,4.80
2019-02-12T04:07:59.972Z,4.80
2019-02-12T04:09:05.860Z,4.70
2019-02-12T04:10:14.697Z,4.70
2019-02-12T04:11:19.647Z,4.70
2019-02-12T04:12:24.902Z,4.70
2019-02-12T04:13:30.224Z,4.60
2019-02-12T04:14:35.010Z,4.60
2019-02-12T04:15:39.816Z,4.60
2019-02-12T04:16:45.145Z,4.60
2019-02-12T04:17:50.348Z,4.60
2019-02-12T04:18:55.752Z,4.70
2019-02-12T04:20:01.182Z,4.80
2019-02-12T04:21:06.428Z,4.80
2019-02-12T04:22:11.415Z,4.80
2019-02-12T04:23:16.451Z,4.80
2019-02-12T04:24:21.688Z,4.80
2019-02-12T04:25:27.664Z,4.80
2019-02-12T04:26:32.920Z,4.70
2019-02-12T04:27:37.998Z,4.70
2019-02-12T04:28:43.405Z,4.70
2019-02-12T04:29:48.255Z,4.70
2019-02-12T04:30:53.201Z,4.80
2019-02-12T04:31:58.101Z,4.80
2019-02-12T04:33:06.100Z,4.80
2019-02-12T04:34:10.894Z,4.70
2019-02-12T04:35:15.962Z,4.80
2019-02-12T04:36:21.087Z,4.80
2019-02-12T04:37:26.164Z,4.80
2019-02-12T04:38:31.021Z,4.80
2019-02-12T04:39:36.261Z,4.80
2019-02-12T04:40:41.412Z,4.80
2019-02-12T04:41:46.320Z,4.80
2019-02-12T04:42:52.225Z,4.70
2019-02-12T04:43:57.126Z,4.70
2019-02-12T04:45:03.195Z,4.70
2019-02-12T04:46:08.537Z,4.70
2019-02-12T04:47:14.225Z,4.70
2019-02-12T04:48:19.291Z,4.60
2019-02-12T04:49:24.517Z,4.60
2019-02-12T04:50:29.877Z,4.60
2019-02-12T04:51:35.072Z,4.60
2019-02-12T04:52:40.430Z,4.50
2019-02-12T04:53:45.473Z,4.50
2019-02-12T04:54:50.341Z,4.50
2019-02-12T04:55:55.363Z,4.50
2019-02-12T04:57:00.199Z,4.50
2019-02-12T05:00:22.732Z,4.50
2019-02-12T05:01:29.012Z,4.50
2019-02-12T05:02:33.904Z,4.50
2019-02-12T05:03:39.527Z,4.50
2019-02-12T05:04:44.346Z,4.50
2019-02-12T05:05:49.189Z,4.50
2019-02-12T05:06:54.044Z,4.50
2019-02-12T05:07:58.833Z,4.50
2019-02-12T05:09:29.559Z,4.40
2019-02-12T05:10:36.974Z,4.50
2019-02-12T05:11:43.346Z,4.40
2019-02-12T05:12:48.533Z,4.50
2019-02-12T05:13:53.344Z,4.50
2019-02-12T05:14:58.304Z,4.50
2019-02-12T05:16:03.575Z,4.50
2019-02-12T05:17:08.427Z,4.50
2019-02-12T05:18:13.521Z,4.50
2019-02-12T05:19:18.577Z,4.50
2019-02-12T05:20:23.539Z,4.50
2019-02-12T05:21:30.646Z,4.50
2019-02-12T05:22:43.120Z,4.50
2019-02-12T05:23:42.835Z,4.50
2019-02-12T05:24:47.717Z,4.40
2019-02-12T05:25:52.592Z,4.40
2019-02-12T05:26:59.545Z,4.40
2019-02-12T05:28:05.999Z,4.40
2019-02-12T05:29:11.386Z,4.40
2019-02-12T05:30:16.301Z,4.40
2019-02-12T05:31:21.205Z,4.40
2019-02-12T05:32:26.406Z,4.40
2019-02-12T05:33:31.522Z,4.40
2019-02-12T05:34:36.888Z,4.40
2019-02-12T05:35:41.884Z,4.40
2019-02-12T05:36:46.949Z,4.40
2019-02-12T05:37:55.017Z,4.40
2019-02-12T05:38:59.951Z,4.40
2019-02-12T05:40:05.408Z,4.40
2019-02-12T05:41:11.255Z,4.40
2019-02-12T05:42:16.102Z,4.40
2019-02-12T05:43:20.873Z,4.40
2019-02-12T05:44:25.725Z,4.40
2019-02-12T05:45:30.706Z,4.40
2019-02-12T05:46:35.485Z,4.40
2019-02-12T05:47:41.045Z,4.40
2019-02-12T05:48:45.820Z,4.40
2019-02-12T05:49:52.492Z,4.40
2019-02-12T05:50:57.508Z,4.40
2019-02-12T05:52:02.387Z,4.40
2019-02-12T05:53:10.344Z,4.40
2019-02-12T05:54:16.991Z,4.30
2019-02-12T05:55:22.158Z,4.30
2019-02-12T05:56:26.998Z,4.30
2019-02-12T05:57:34.509Z,4.40
2019-02-12T05:58:39.327Z,4.40
2019-02-12T05:59:47.425Z,4.40
2019-02-12T06:00:52.294Z,4.40
2019-02-12T06:01:57.251Z,4.40
2019-02-12T06:03:02.186Z,4.40
2019-02-12T06:04:07.169Z,4.40
2019-02-12T06:05:15.833Z,4.40
2019-02-12T06:06:25.040Z,4.40
2019-02-12T06:07:29.860Z,4.40
2019-02-12T06:08:37.047Z,4.40
2019-02-12T06:09:42.099Z,4.40
2019-02-12T06:10:46.954Z,4.40
2019-02-12T06:11:52.034Z,4.40
2019-02-12T06:12:57.231Z,4.40
2019-02-12T06:14:02.222Z,4.40
2019-02-12T06:15:28.094Z,4.30
2019-02-12T06:16:33.693Z,4.40
2019-02-12T06:17:38.706Z,4.40
2019-02-12T06:18:43.617Z,4.40
2019-02-12T06:19:48.474Z,4.40
2019-02-12T06:20:53.380Z,4.40
2019-02-12T06:22:00.087Z,4.50
2019-02-12T06:23:06.102Z,4.50
2019-02-12T06:24:10.936Z,4.50
2019-02-12T06:25:19.506Z,4.50
2019-02-12T06:26:26.106Z,4.50
2019-02-12T06:27:31.778Z,4.50
2019-02-12T06:28:37.085Z,4.50
2019-02-12T06:29:42.437Z,4.50
2019-02-12T06:30:50.416Z,4.60
2019-02-12T06:31:56.086Z,4.60
2019-02-12T06:33:07.693Z,4.60
2019-02-12T06:34:14.194Z,4.60
2019-02-12T06:35:19.448Z,4.60
2019-02-12T06:36:25.078Z,4.60
2019-02-12T06:37:30.275Z,4.60
2019-02-12T06:38:35.434Z,4.70
2019-02-12T06:39:40.712Z,4.70
2019-02-12T06:40:45.811Z,4.70
2019-02-12T06:41:50.863Z,4.70
2019-02-12T06:43:10.208Z,4.70
2019-02-12T06:46:07.630Z,4.60
2019-02-12T06:47:13.350Z,4.60
2019-02-12T06:48:31.699Z,4.60
2019-02-12T06:49:37.397Z,4.60
2019-02-12T06:50:45.673Z,4.70
2019-02-12T06:51:50.881Z,4.70
2019-02-12T06:52:56.578Z,4.70
2019-02-12T06:54:05.080Z,4.70
2019-02-12T06:55:12.235Z,4.70
2019-02-12T06:56:17.433Z,4.70
2019-02-12T06:57:22.870Z,4.60
2019-02-12T06:58:28.444Z,4.60
2019-02-12T06:59:33.638Z,4.60
2019-02-12T07:00:39.555Z,4.60
2019-02-12T07:02:13.608Z,4.70
2019-02-12T07:03:25.983Z,4.70
2019-02-12T07:04:38.010Z,4.60
2019-02-12T07:05:54.379Z,4.60
2019-02-12T07:07:33.176Z,4.60
2019-02-12T07:09:02.792Z,4.60
2019-02-12T07:10:31.289Z,4.60
2019-02-12T07:11:55.201Z,4.60
2019-02-12T07:13:37.559Z,4.60
2019-02-12T07:15:00.327Z,4.70
2019-02-12T07:16:44.505Z,4.70
2019-02-12T07:18:24.874Z,4.70
2019-02-12T07:19:47.862Z,4.70
2019-02-12T07:21:19.181Z,4.70
2019-02-12T07:23:01.629Z,4.70
2019-02-12T07:24:24.766Z,4.70
2019-02-12T07:25:59.197Z,4.70
2019-02-12T07:27:39.517Z,4.60
2019-02-12T07:29:31.630Z,4.60
2019-02-12T07:31:23.561Z,4.70
2019-02-12T07:33:00.089Z,4.70
2019-02-12T07:37:05.179Z,4.60
2019-02-12T07:38:24.016Z,4.60
2019-02-12T07:39:55.434Z,4.50
2019-02-12T07:41:51.125Z,4.50
2019-02-12T07:43:38.562Z,4.50
2019-02-12T07:45:23.307Z,4.60
2019-02-12T07:47:12.970Z,4.60
2019-02-12T07:48:36.188Z,4.60
2019-02-12T07:50:26.719Z,4.60
2019-02-12T07:52:02.797Z,4.60
2019-02-12T07:53:48.762Z,4.60
2019-02-12T07:55:35.197Z,4.60
2019-02-12T07:57:16.344Z,4.70
2019-02-12T07:59:07.366Z,4.70
2019-02-12T08:00:55.218Z,4.70
2019-02-12T08:02:33.858Z,4.80
2019-02-12T08:04:17.071Z,4.80
2019-02-12T08:06:07.815Z,4.80
2019-02-12T08:08:02.682Z,4.80
2019-02-12T08:09:57.480Z,4.80
2019-02-12T08:11:34.697Z,4.90
2019-02-12T08:13:34.453Z,4.90
2019-02-12T08:15:05.893Z,4.90
2019-02-12T08:16:54.752Z,4.90
2019-02-12T08:18:51.920Z,4.90
2019-02-12T08:20:20.788Z,4.90
2019-02-12T08:21:53.050Z,5.00
2019-02-12T08:23:41.344Z,5.00
2019-02-12T08:25:24.830Z,5.00
2019-02-12T08:26:54.698Z,5.00
2019-02-12T08:28:47.509Z,5.00
2019-02-12T08:30:32.402Z,5.00
2019-02-12T08:32:37.267Z,5.10
2019-02-12T08:34:45.015Z,5.10
2019-02-12T08:35:59.397Z,5.10
2019-02-12T08:37:31.907Z,5.20
2019-02-12T08:39:07.619Z,5.20
2019-02-12T08:41:00.401Z,5.20
2019-02-12T08:42:38.131Z,5.20
2019-02-12T08:44:30.051Z,5.20
2019-02-12T08:46:14.638Z,5.30
2019-02-12T08:47:58.236Z,5.30
2019-02-12T08:49:17.418Z,5.30
2019-02-12T08:51:09.418Z,5.30
2019-02-12T08:53:02.523Z,5.30
2019-02-12T08:54:57.501Z,5.30
2019-02-12T08:56:30.405Z,5.30
2019-02-12T08:57:55.181Z,5.30
2019-02-12T08:59:24.555Z,5.30
2019-02-12T09:01:08.246Z,5.30
2019-02-12T09:02:45.572Z,5.30
2019-02-12T09:04:54.148Z,5.30
2019-02-12T09:06:41.037Z,5.30
2019-02-12T09:08:16.091Z,5.40
2019-02-12T09:10:02.846Z,5.40
2019-02-12T09:11:31.419Z,5.40
2019-02-12T09:13:42.979Z,5.40
2019-02-12T09:15:33.566Z,5.40
2019-02-12T09:17:24.091Z,5.40
2019-02-12T09:19:27.570Z,5.50
2019-02-12T09:21:05.912Z,5.40
2019-02-12T09:23:05.804Z,5.50
2019-02-12T09:24:49.694Z,5.50
2019-02-12T09:26:37.331Z,5.50
2019-02-12T09:28:28.695Z,5.50
2019-02-12T09:30:03.706Z,5.50
2019-02-12T09:32:12.615Z,5.50
2019-02-12T09:33:50.458Z,5.60
2019-02-12T09:35:37.808Z,5.60
2019-02-12T09:37:01.194Z,5.60
2019-02-12T09:38:42.532Z,5.60
2019-02-12T09:40:24.425Z,5.60
2019-02-12T09:41:45.316Z,5.60
2019-02-12T09:43:31.257Z,5.70
2019-02-12T09:45:04.516Z,5.70
2019-02-12T09:46:50.395Z,5.70
2019-02-12T09:48:28.185Z,5.70
2019-02-12T09:50:47.794Z,5.70
2019-02-12T09:52:28.229Z,5.70
2019-02-12T09:54:28.688Z,5.70
2019-02-12T09:56:14.183Z,5.60
2019-02-12T09:58:02.902Z,5.70
2019-02-12T09:59:22.097Z,5.70
2019-02-12T10:00:40.364Z,5.70
2019-02-12T10:02:14.544Z,5.80
2019-02-12T10:04:07.245Z,5.80
2019-02-12T10:05:51.033Z,5.90
2019-02-12T10:07:34.251Z,6.00
2019-02-12T10:09:26.119Z,6.00
2019-02-12T10:11:07.601Z,6.10
2019-02-12T10:12:51.242Z,6.10
2019-02-12T10:14:54.323Z,6.20
2019-02-12T10:16:45.971Z,6.20
2019-02-12T10:18:28.721Z,6.30
2019-02-12T10:19:46.996Z,6.40
2019-02-12T10:21:42.604Z,6.50
2019-02-12T10:23:34.323Z,6.50
2019-02-12T10:24:57.215Z,6.50
2019-02-12T10:26:12.568Z,6.60
2019-02-12T10:28:05.507Z,6.60
2019-02-12T10:29:56.151Z,6.70
2019-02-12T10:31:51.230Z,6.70
2019-02-12T10:32:56.752Z,6.70
2019-02-12T10:34:03.032Z,6.70
2019-02-12T10:35:12.295Z,6.70
2019-02-12T10:36:17.270Z,6.60
2019-02-12T10:37:22.637Z,6.70
2019-02-12T10:38:27.639Z,6.60
2019-02-12T10:39:32.570Z,6.60
2019-02-12T10:40:37.987Z,6.60
2019-02-12T10:41:43.043Z,6.60
2019-02-12T10:42:52.043Z,6.60
2019-02-12T10:44:04.433Z,6.60
2019-02-12T10:45:14.240Z,6.60
2019-02-12T10:46:19.868Z,6.60
2019-02-12T10:47:32.518Z,6.70
2019-02-12T10:48:37.896Z,6.80
2019-02-12T10:50:01.175Z,6.80
2019-02-12T10:51:18.980Z,6.90
2019-02-12T10:53:09.020Z,6.90
2019-02-12T10:54:17.774Z,6.90
2019-02-12T10:55:26.707Z,7.00
2019-02-12T10:56:37.466Z,7.00
2019-02-12T10:57:45.404Z,7.10
2019-02-12T10:58:55.371Z,7.10
2019-02-12T11:00:07.455Z,7.10
2019-02-12T11:01:14.338Z,7.10
2019-02-12T11:02:43.779Z,7.20
2019-02-12T11:03:54.865Z,7.20
2019-02-12T11:05:02.087Z,7.20
2019-02-12T11:06:15.942Z,7.20
2019-02-12T11:07:21.176Z,7.20
2019-02-12T11:08:26.857Z,7.20
2019-02-12T11:09:33.629Z,7.20
2019-02-12T11:10:39.913Z,7.30
2019-02-12T11:11:45.449Z,7.30
2019-02-12T11:12:57.107Z,7.30
2019-02-12T11:14:04.631Z,7.20
2019-02-12T11:15:13.908Z,7.20
2019-02-12T11:16:18.493Z,7.20
2019-02-12T11:17:26.279Z,7.20
2019-02-12T11:18:32.705Z,7.20
2019-02-12T11:19:37.678Z,7.20
2019-02-12T11:20:44.959Z,7.30
2019-02-12T11:21:52.339Z,7.30
2019-02-12T11:22:59.595Z,7.20
2019-02-12T11:24:10.564Z,7.20
2019-02-12T11:27:01.224Z,7.30
2019-02-12T11:28:06.859Z,7.40
2019-02-12T11:29:12.096Z,7.40
2019-02-12T11:30:18.102Z,7.40
2019-02-12T11:31:28.795Z,7.40
2019-02-12T11:32:35.324Z,7.40
2019-02-12T11:33:40.287Z,7.40
2019-02-12T11:34:45.622Z,7.40
2019-02-12T11:35:51.493Z,7.40
2019-02-12T11:37:09.367Z,7.50
2019-02-12T11:39:25.623Z,7.50
2019-02-12T11:40:35.854Z,7.50
2019-02-12T11:42:09.327Z,7.60
2019-02-12T11:44:03.628Z,7.70
2019-02-12T11:45:16.679Z,7.70
2019-02-12T11:46:28.962Z,7.70
2019-02-12T11:47:47.361Z,7.70
2019-02-12T11:48:56.477Z,7.80
2019-02-12T11:50:01.703Z,7.80
2019-02-12T11:51:13.189Z,7.70
2019-02-12T11:52:21.175Z,7.70
2019-02-12T11:53:27.942Z,7.70
2019-02-12T11:54:32.885Z,7.60
2019-02-12T11:55:37.798Z,7.60
2019-02-12T11:56:45.773Z,7.60
2019-02-12T11:57:54.930Z,7.60
2019-02-12T11:59:06.477Z,7.60
2019-02-12T12:00:19.302Z,7.60
2019-02-12T12:01:31.195Z,7.60
2019-02-12T12:02:41.826Z,7.70
2019-02-12T12:03:43.467Z,7.70
2019-02-12T12:04:49.596Z,7.50
2019-02-12T12:05:55.670Z,7.70
2019-02-12T12:07:01.726Z,7.70
2019-02-12T12:08:44.837Z,7.70
2019-02-12T12:09:50.326Z,7.70
2019-02-12T12:10:55.683Z,7.70
2019-02-12T12:12:02.204Z,7.70
2019-02-12T12:13:13.116Z,7.70
2019-02-12T12:14:19.270Z,7.70
2019-02-12T12:15:29.663Z,7.80
2019-02-12T12:16:37.750Z,7.80
2019-02-12T12:17:43.771Z,7.80
2019-02-12T12:18:50.935Z,7.80
2019-02-12T12:19:59.338Z,7.80
2019-02-12T12:21:06.455Z,7.80
2019-02-12T12:23:44.898Z,7.50
2019-02-12T12:24:52.716Z,7.80
2019-02-12T12:26:03.714Z,7.80
2019-02-12T12:27:12.544Z,7.80
2019-02-12T12:28:17.548Z,7.90
2019-02-12T12:29:22.861Z,7.90
2019-02-12T12:30:28.789Z,7.90
2019-02-12T12:31:37.221Z,7.90
2019-02-12T12:32:56.423Z,8.00
2019-02-12T12:34:01.483Z,8.00
2019-02-12T12:35:06.741Z,8.00
2019-02-12T12:36:11.653Z,8.00
2019-02-12T12:37:19.725Z,8.00
2019-02-12T12:38:28.230Z,8.10
2019-02-12T12:39:33.270Z,8.00
2019-02-12T12:40:38.945Z,8.10
2019-02-12T12:41:44.405Z,8.10
2019-02-12T12:43:06.005Z,8.10
2019-02-12T12:44:40.350Z,8.10
2019-02-12T12:45:44.908Z,8.10
2019-02-12T12:46:50.559Z,8.10
2019-02-12T12:48:27.197Z,8.10
2019-02-12T12:49:32.720Z,8.10
2019-02-12T12:50:42.494Z,8.10
2019-02-12T12:51:52.174Z,8.10
2019-02-12T12:55:17.430Z,8.30
2019-02-12T12:56:43.895Z,8.40
2019-02-12T12:57:54.125Z,8.40
2019-02-12T12:59:01.532Z,8.40
2019-02-12T13:00:09.296Z,8.40
2019-02-12T13:01:15.282Z,8.50
2019-02-12T13:02:21.009Z,8.50
2019-02-12T13:03:40.569Z,8.60
2019-02-12T13:04:48.907Z,8.70
2019-02-12T13:05:53.910Z,8.80
2019-02-12T13:06:59.261Z,9.00
2019-02-12T13:08:04.196Z,9.00
2019-02-12T13:09:27.008Z,9.10
2019-02-12T13:10:32.653Z,9.10
2019-02-12T13:11:52.617Z,9.10
2019-02-12T13:12:57.502Z,9.10
2019-02-12T13:14:03.313Z,9.10
2019-02-12T13:15:09.944Z,9.10
2019-02-12T13:16:15.199Z,9.00
2019-02-12T13:17:20.482Z,9.00
2019-02-12T13:18:25.617Z,9.00
2019-02-12T13:19:33.111Z,9.00
2019-02-12T13:20:40.170Z,9.00
2019-02-12T13:21:48.217Z,9.00
2019-02-12T13:22:53.794Z,9.00
2019-02-12T13:24:02.205Z,9.10
2019-02-12T13:25:10.980Z,9.00
2019-02-12T13:26:16.847Z,8.90
2019-02-12T13:27:32.393Z,8.80
2019-02-12T13:28:45.811Z,8.80
2019-02-12T13:29:53.398Z,8.80
2019-02-12T13:31:40.766Z,8.80
2019-02-12T13:32:46.122Z,8.90
2019-02-12T13:33:56.052Z,8.90
2019-02-12T13:35:03.545Z,8.90
2019-02-12T13:36:08.558Z,8.90
2019-02-12T13:37:13.387Z,8.90
2019-02-12T13:38:19.138Z,8.90
2019-02-12T13:39:30.194Z,8.90
2019-02-12T13:40:39.195Z,8.90
2019-02-12T13:41:44.130Z,8.90
2019-02-12T13:42:51.393Z,8.90
2019-02-12T13:43:57.649Z,8.90
2019-02-12T13:45:05.659Z,8.90
2019-02-12T13:46:10.824Z,8.90
2019-02-12T13:47:15.747Z,8.80
2019-02-12T13:48:25.989Z,8.80
2019-02-12T13:49:33.693Z,8.80
2019-02-12T13:50:46.897Z,8.80
2019-02-12T13:51:54.610Z,8.80
2019-02-12T13:52:59.784Z,8.70
2019-02-12T13:54:04.942Z,8.70
2019-02-12T13:55:17.032Z,8.70
2019-02-12T13:56:23.280Z,8.70
2019-02-12T13:57:31.863Z,8.70
2019-02-12T13:58:37.529Z,8.70
2019-02-12T13:59:42.359Z,8.70
2019-02-12T14:00:47.331Z,8.70
2019-02-12T14:01:53.178Z,8.70
2019-02-12T14:02:58.707Z,8.70
2019-02-12T14:04:04.056Z,8.70
2019-02-12T14:05:12.302Z,8.60
2019-02-12T14:06:17.339Z,8.60
2019-02-12T14:07:22.417Z,8.60
2019-02-12T14:08:28.203Z,8.60
2019-02-12T14:09:33.426Z,8.60
2019-02-12T14:10:40.587Z,8.70
2019-02-12T14:11:46.789Z,8.70
2019-02-12T14:12:52.417Z,8.60
2019-02-12T14:13:57.413Z,8.70
2019-02-12T14:15:02.914Z,8.70
2019-02-12T14:16:08.336Z,8.80
2019-02-12T14:17:13.659Z,8.80
2019-02-12T14:18:22.687Z,8.80
2019-02-12T14:19:32.465Z,8.80
2019-02-12T14:20:38.858Z,8.80
2019-02-12T14:21:44.675Z,8.80
2019-02-12T14:22:51.280Z,8.80
2019-02-12T14:23:57.636Z,8.70
2019-02-12T14:25:04.266Z,8.70
2019-02-12T14:26:13.557Z,8.70
2019-02-12T14:27:24.676Z,8.80
2019-02-12T14:29:16.849Z,8.80
2019-02-12T14:30:22.342Z,8.80
2019-02-12T14:31:30.831Z,8.80
2019-02-12T14:32:37.616Z,8.80
2019-02-12T14:33:47.582Z,8.90
2019-02-12T14:34:55.837Z,8.90
2019-02-12T14:36:02.545Z,8.90
2019-02-12T14:38:15.083Z,8.90
2019-02-12T14:41:12.603Z,8.80
2019-02-12T14:45:03.626Z,8.80
2019-02-12T14:46:08.470Z,8.80
2019-02-12T14:47:19.710Z,8.80
2019-02-12T14:49:44.264Z,8.80
2019-02-12T14:57:33.393Z,9.00
2019-02-12T14:58:49.241Z,9.00
2019-02-12T14:59:57.571Z,9.00
2019-02-12T15:01:02.506Z,9.00
2019-02-12T15:02:07.813Z,9.00
2019-02-12T15:03:13.257Z,9.00
2019-02-12T15:04:20.089Z,9.00
2019-02-12T15:05:25.801Z,9.00
2019-02-12T15:06:32.337Z,8.90
2019-02-12T15:07:43.172Z,8.90
2019-02-12T15:08:48.206Z,8.90
2019-02-12T15:09:53.905Z,8.90
2019-02-12T15:10:58.856Z,8.90
2019-02-12T15:12:21.854Z,8.90
2019-02-12T15:13:29.198Z,8.90
2019-02-12T15:14:37.505Z,8.90
2019-02-12T15:15:45.545Z,8.90
2019-02-12T15:16:51.136Z,8.80
2019-02-12T15:17:56.953Z,8.80
2019-02-12T15:19:03.723Z,8.80
2019-02-12T15:20:09.314Z,8.80
2019-02-12T15:21:48.883Z,8.80
2019-02-12T15:23:06.494Z,8.80
2019-02-12T15:24:17.839Z,8.80
2019-02-12T15:25:26.317Z,8.90
2019-02-12T15:26:38.831Z,8.90
2019-02-12T15:27:45.789Z,9.00
2019-02-12T15:28:52.113Z,9.00
2019-02-12T15:29:57.306Z,9.00
2019-02-12T15:37:18.322Z,9.00
2019-02-12T15:38:31.776Z,9.10
2019-02-12T15:39:36.994Z,9.00
2019-02-12T15:40:51.327Z,9.00
2019-02-12T15:42:00.345Z,9.10
2019-02-12T15:44:09.946Z,9.00
2019-02-12T15:45:21.442Z,9.00
2019-02-12T15:46:27.722Z,8.90
2019-02-12T15:47:33.450Z,8.90
2019-02-12T15:48:40.940Z,8.90
2019-02-12T15:49:53.187Z,8.90
2019-02-12T15:50:59.924Z,8.90
2019-02-12T15:52:05.492Z,8.90
2019-02-12T15:53:15.421Z,8.90
2019-02-12T15:54:24.765Z,8.90
2019-02-12T15:55:41.984Z,8.90
2019-02-12T15:56:38.197Z,8.80
2019-02-12T15:57:46.657Z,8.80
2019-02-12T15:58:55.890Z,8.70
2019-02-12T16:00:04.477Z,8.70
2019-02-12T16:01:10.981Z,8.70
2019-02-12T16:02:16.402Z,8.70
2019-02-12T16:03:25.946Z,8.70
2019-02-12T16:04:39.028Z,8.70
2019-02-12T16:08:49.308Z,8.60
2019-02-12T16:09:58.918Z,8.60
2019-02-12T16:11:32.421Z,8.60
2019-02-12T16:13:01.986Z,8.70
2019-02-12T16:14:21.226Z,8.70
2019-02-12T16:15:54.092Z,8.70
2019-02-12T16:17:02.206Z,8.70
2019-02-12T16:18:13.988Z,8.70
2019-02-12T16:19:25.473Z,8.60
2019-02-12T16:20:30.910Z,8.70
2019-02-12T16:21:41.930Z,8.60
2019-02-12T16:22:49.776Z,8.60
2019-02-12T16:23:58.175Z,8.60
2019-02-12T16:25:08.586Z,8.60
2019-02-12T16:26:13.746Z,8.50
2019-02-12T16:27:19.569Z,8.50
2019-02-12T16:28:49.389Z,8.50
2019-02-12T16:30:08.642Z,8.40
2019-02-12T16:31:18.675Z,8.40
2019-02-12T16:32:27.244Z,8.40
2019-02-12T16:34:21.168Z,8.50
2019-02-12T16:35:26.287Z,8.30
2019-02-12T16:36:44.262Z,8.30
2019-02-12T16:37:55.502Z,8.30
2019-02-12T16:39:05.615Z,8.30
2019-02-12T16:40:18.507Z,8.30
2019-02-12T16:41:28.730Z,8.30
2019-02-12T16:42:34.088Z,8.50
2019-02-12T16:43:42.763Z,8.70
2019-02-12T16:44:49.990Z,8.40
2019-02-12T16:46:05.909Z,8.30
2019-02-12T16:47:11.635Z,8.30
2019-02-12T16:48:20.476Z,8.30
2019-02-12T16:49:37.201Z,8.30
2019-02-12T16:50:53.043Z,8.30
2019-02-12T16:52:19.311Z,8.20
2019-02-12T16:53:14.050Z,8.30